CST1033 CYUL-KPVD
Flight info
| Callsign | CST1033 |
|---|---|
| Flight time | 1h 10m |
| Altitude | 39000 |
| Route | VIRKA DCT ENE/N0427F170 V167 SCUPP/N0421F160 V167 PVD |
| Aircraft | B789/H-SDE1E2E3FGHIJ2J3J4J5M1RWXY/LB1D1 |
Departure
| Time | 2026-05-06 18:56 |
|---|---|
| Airport | Montreal / Pierre Elliott Trudeau International Airport (CYUL) |
Arrival
| Time | 2026-05-06 20:06 |
|---|---|
| Airport | Rhode Island T. F. Green International Airport (KPVD) |
| Time | Latitude | Longitude | Altitude | Speed | Heading |
|---|---|---|---|---|---|
| 2026-05-06 18:17 | 45.45936 | -73.75044 | 110 ft | 0 kts | 178° |
| 2026-05-06 18:42 | 45.45947 | -73.75045 | 109 ft | 3 kts | 173° |
| 2026-05-06 18:42 | 45.45970 | -73.75052 | 109 ft | 3 kts | 159° |
| 2026-05-06 18:42 | 45.45988 | -73.75067 | 108 ft | 3 kts | 136° |
| 2026-05-06 18:43 | 45.45999 | -73.75090 | 109 ft | 3 kts | 110° |
| 2026-05-06 18:43 | 45.46003 | -73.75119 | 109 ft | 3 kts | 94° |
| 2026-05-06 18:43 | 45.46003 | -73.75138 | 109 ft | 2 kts | 89° |
| 2026-05-06 18:43 | 45.46003 | -73.75154 | 110 ft | 2 kts | 86° |
| 2026-05-06 18:44 | 45.46002 | -73.75165 | 110 ft | 0 kts | 86° |
| 2026-05-06 18:47 | 45.46002 | -73.75164 | 110 ft | 1 kts | 86° |
| 2026-05-06 18:48 | 45.46005 | -73.75138 | 109 ft | 5 kts | 82° |
| 2026-05-06 18:48 | 45.46007 | -73.75063 | 110 ft | 10 kts | 94° |
| 2026-05-06 18:48 | 45.45985 | -73.74953 | 110 ft | 13 kts | 101° |
| 2026-05-06 18:48 | 45.45983 | -73.74816 | 110 ft | 15 kts | 93° |
| 2026-05-06 18:49 | 45.45960 | -73.74663 | 110 ft | 17 kts | 96° |
| 2026-05-06 18:49 | 45.45978 | -73.74486 | 109 ft | 20 kts | 71° |
| 2026-05-06 18:49 | 45.45958 | -73.74322 | 108 ft | 17 kts | 141° |
| 2026-05-06 18:49 | 45.45865 | -73.74234 | 109 ft | 7 kts | 131° |
| 2026-05-06 18:50 | 45.45864 | -73.74232 | 109 ft | 0 kts | 131° |
| 2026-05-06 18:54 | 45.45864 | -73.74231 | 109 ft | 0 kts | 131° |
| 2026-05-06 18:54 | 45.45854 | -73.74215 | 109 ft | 4 kts | 131° |
| 2026-05-06 18:54 | 45.45824 | -73.74166 | 109 ft | 9 kts | 131° |
| 2026-05-06 18:55 | 45.45809 | -73.74101 | 109 ft | 6 kts | 75° |
| 2026-05-06 18:55 | 45.45834 | -73.74054 | 109 ft | 0 kts | 43° |
| 2026-05-06 18:55 | 45.45835 | -73.74054 | 109 ft | 1 kts | 43° |
| 2026-05-06 18:55 | 45.45854 | -73.74028 | 109 ft | 17 kts | 43° |
| 2026-05-06 18:56 | 45.46092 | -73.73719 | 111 ft | 76 kts | 42° |
| 2026-05-06 18:56 | 45.46631 | -73.73011 | 114 ft | 133 kts | 43° |
| 2026-05-06 18:56 | 45.47429 | -73.71954 | 164 ft | 176 kts | 43° |
| 2026-05-06 18:56 | 45.48339 | -73.70749 | 800 ft | 179 kts | 44° |
| 2026-05-06 18:57 | 45.49256 | -73.69522 | 1634 ft | 183 kts | 44° |
| 2026-05-06 18:57 | 45.50186 | -73.68270 | 2322 ft | 190 kts | 43° |
| 2026-05-06 18:57 | 45.51164 | -73.66938 | 2983 ft | 197 kts | 42° |
| 2026-05-06 18:57 | 45.52129 | -73.65403 | 3349 ft | 224 kts | 55° |
| 2026-05-06 18:58 | 45.52782 | -73.63218 | 3673 ft | 256 kts | 74° |
| 2026-05-06 18:58 | 45.53092 | -73.60654 | 4455 ft | 264 kts | 81° |
| 2026-05-06 18:58 | 45.53317 | -73.58017 | 5279 ft | 272 kts | 82° |
| 2026-05-06 18:58 | 45.53551 | -73.55298 | 6102 ft | 280 kts | 83° |
| 2026-05-06 18:59 | 45.53821 | -73.52507 | 6840 ft | 288 kts | 83° |
| 2026-05-06 18:59 | 45.54000 | -73.49631 | 7491 ft | 295 kts | 100° |
| 2026-05-06 18:59 | 45.53188 | -73.47040 | 8283 ft | 285 kts | 138° |
| 2026-05-06 18:59 | 45.51621 | -73.45406 | 9064 ft | 278 kts | 162° |
| 2026-05-06 19:00 | 45.49815 | -73.44474 | 9851 ft | 277 kts | 169° |
| 2026-05-06 19:00 | 45.47957 | -73.43633 | 10380 ft | 291 kts | 169° |
| 2026-05-06 19:00 | 45.45959 | -73.42587 | 10505 ft | 321 kts | 165° |
| 2026-05-06 19:00 | 45.43813 | -73.41310 | 10564 ft | 348 kts | 163° |
| 2026-05-06 19:01 | 45.41543 | -73.39975 | 10865 ft | 362 kts | 164° |
| 2026-05-06 19:01 | 45.39175 | -73.38635 | 11625 ft | 363 kts | 165° |
| 2026-05-06 19:01 | 45.36809 | -73.37315 | 12308 ft | 367 kts | 165° |
| 2026-05-06 19:01 | 45.34450 | -73.35983 | 12982 ft | 371 kts | 165° |
| 2026-05-06 19:02 | 45.32039 | -73.34613 | 13670 ft | 375 kts | 165° |
| 2026-05-06 19:02 | 45.29614 | -73.33241 | 14279 ft | 379 kts | 165° |
| 2026-05-06 19:02 | 45.27145 | -73.31852 | 14882 ft | 382 kts | 165° |
| 2026-05-06 19:02 | 45.24661 | -73.30454 | 15447 ft | 386 kts | 165° |
| 2026-05-06 19:03 | 45.22153 | -73.29041 | 16036 ft | 389 kts | 165° |
| 2026-05-06 19:03 | 45.19627 | -73.27619 | 16611 ft | 393 kts | 165° |
| 2026-05-06 19:03 | 45.17070 | -73.26182 | 17156 ft | 396 kts | 166° |
| 2026-05-06 19:03 | 45.14502 | -73.24741 | 17719 ft | 399 kts | 166° |
| 2026-05-06 19:04 | 45.11910 | -73.23288 | 18245 ft | 402 kts | 166° |
| 2026-05-06 19:04 | 45.09303 | -73.21827 | 18674 ft | 405 kts | 166° |
| 2026-05-06 19:04 | 45.06670 | -73.20353 | 19115 ft | 408 kts | 166° |
| 2026-05-06 19:04 | 45.04045 | -73.18750 | 19512 ft | 417 kts | 158° |
| 2026-05-06 19:05 | 45.01583 | -73.16454 | 19942 ft | 430 kts | 148° |
| 2026-05-06 19:05 | 44.99434 | -73.13515 | 20385 ft | 442 kts | 137° |
| 2026-05-06 19:05 | 44.97437 | -73.10172 | 20764 ft | 446 kts | 136° |
| 2026-05-06 19:05 | 44.95434 | -73.06817 | 21191 ft | 449 kts | 136° |
| 2026-05-06 19:06 | 44.93416 | -73.03421 | 21580 ft | 452 kts | 136° |
| 2026-05-06 19:06 | 44.91387 | -73.00018 | 21961 ft | 455 kts | 136° |
| 2026-05-06 19:06 | 44.89334 | -72.96593 | 22332 ft | 458 kts | 136° |
| 2026-05-06 19:06 | 44.87270 | -72.93148 | 22679 ft | 461 kts | 136° |
| 2026-05-06 19:07 | 44.85221 | -72.89728 | 22997 ft | 463 kts | 136° |
| 2026-05-06 19:07 | 44.83132 | -72.86244 | 23329 ft | 466 kts | 136° |
| 2026-05-06 19:07 | 44.81025 | -72.82740 | 23592 ft | 468 kts | 136° |
| 2026-05-06 19:07 | 44.78915 | -72.79234 | 23887 ft | 469 kts | 136° |
| 2026-05-06 19:08 | 44.76801 | -72.75724 | 24182 ft | 470 kts | 136° |
| 2026-05-06 19:08 | 44.74682 | -72.72211 | 24469 ft | 471 kts | 136° |
| 2026-05-06 19:08 | 44.72559 | -72.68697 | 24757 ft | 471 kts | 136° |
| 2026-05-06 19:08 | 44.70437 | -72.65187 | 25018 ft | 472 kts | 137° |
| 2026-05-06 19:09 | 44.68306 | -72.61669 | 25281 ft | 473 kts | 137° |
| 2026-05-06 19:09 | 44.66170 | -72.58145 | 25587 ft | 474 kts | 137° |
| 2026-05-06 19:09 | 44.64058 | -72.54665 | 25901 ft | 474 kts | 137° |
| 2026-05-06 19:09 | 44.61886 | -72.51091 | 26169 ft | 475 kts | 137° |
| 2026-05-06 19:10 | 44.59768 | -72.47611 | 26431 ft | 476 kts | 137° |
| 2026-05-06 19:10 | 44.57616 | -72.44078 | 26712 ft | 476 kts | 137° |
| 2026-05-06 19:10 | 44.55454 | -72.40534 | 26989 ft | 477 kts | 137° |
| 2026-05-06 19:10 | 44.53294 | -72.36998 | 27298 ft | 478 kts | 137° |
| 2026-05-06 19:11 | 44.51129 | -72.33458 | 27546 ft | 479 kts | 137° |
| 2026-05-06 19:11 | 44.48956 | -72.29909 | 27818 ft | 480 kts | 137° |
| 2026-05-06 19:11 | 44.46777 | -72.26353 | 28098 ft | 481 kts | 138° |
| 2026-05-06 19:11 | 44.44591 | -72.22794 | 28349 ft | 483 kts | 138° |
| 2026-05-06 19:12 | 44.42409 | -72.19244 | 28600 ft | 484 kts | 138° |
| 2026-05-06 19:12 | 44.40202 | -72.15657 | 28870 ft | 486 kts | 138° |
| 2026-05-06 19:12 | 44.37994 | -72.12074 | 29111 ft | 487 kts | 138° |
| 2026-05-06 19:12 | 44.35774 | -72.08476 | 29330 ft | 489 kts | 138° |
| 2026-05-06 19:13 | 44.33548 | -72.04872 | 29564 ft | 491 kts | 138° |
| 2026-05-06 19:13 | 44.31316 | -72.01263 | 29809 ft | 492 kts | 138° |
| 2026-05-06 19:13 | 44.29073 | -71.97641 | 30026 ft | 493 kts | 138° |
| 2026-05-06 19:13 | 44.26853 | -71.94059 | 30206 ft | 494 kts | 138° |
| 2026-05-06 19:14 | 44.24599 | -71.90430 | 30404 ft | 496 kts | 138° |
| 2026-05-06 19:14 | 44.22335 | -71.86788 | 30600 ft | 497 kts | 138° |
| 2026-05-06 19:14 | 44.20068 | -71.83147 | 30813 ft | 498 kts | 138° |
| 2026-05-06 19:14 | 44.17790 | -71.79490 | 30996 ft | 499 kts | 138° |
| 2026-05-06 19:15 | 44.15512 | -71.75840 | 31223 ft | 499 kts | 139° |
| 2026-05-06 19:15 | 44.13238 | -71.72200 | 31553 ft | 498 kts | 138° |
| 2026-05-06 19:15 | 44.10966 | -71.68566 | 31848 ft | 497 kts | 138° |
| 2026-05-06 19:15 | 44.08698 | -71.64946 | 32252 ft | 494 kts | 139° |
| 2026-05-06 19:16 | 44.06444 | -71.61352 | 32604 ft | 492 kts | 139° |
| 2026-05-06 19:16 | 44.04192 | -71.57769 | 32909 ft | 491 kts | 139° |
| 2026-05-06 19:16 | 44.01947 | -71.54198 | 33248 ft | 490 kts | 139° |
| 2026-05-06 19:16 | 43.99709 | -71.50641 | 33599 ft | 488 kts | 139° |
| 2026-05-06 19:17 | 43.97478 | -71.47103 | 33932 ft | 486 kts | 139° |
| 2026-05-06 19:17 | 43.95238 | -71.43558 | 34123 ft | 488 kts | 139° |
| 2026-05-06 19:17 | 43.93027 | -71.40061 | 34325 ft | 490 kts | 139° |
| 2026-05-06 19:17 | 43.90766 | -71.36485 | 34516 ft | 491 kts | 139° |
| 2026-05-06 19:18 | 43.88510 | -71.32923 | 34690 ft | 492 kts | 139° |
| 2026-05-06 19:18 | 43.86247 | -71.29357 | 34866 ft | 494 kts | 139° |
| 2026-05-06 19:18 | 43.83966 | -71.25767 | 35044 ft | 496 kts | 139° |
| 2026-05-06 19:18 | 43.81683 | -71.22175 | 35216 ft | 497 kts | 139° |
| 2026-05-06 19:19 | 43.79386 | -71.18569 | 35338 ft | 500 kts | 139° |
| 2026-05-06 19:19 | 43.77086 | -71.14960 | 35547 ft | 500 kts | 139° |
| 2026-05-06 19:19 | 43.74807 | -71.11388 | 35736 ft | 502 kts | 139° |
| 2026-05-06 19:19 | 43.72466 | -71.07727 | 35900 ft | 503 kts | 139° |
| 2026-05-06 19:20 | 43.70168 | -71.04137 | 36095 ft | 504 kts | 139° |
| 2026-05-06 19:20 | 43.67841 | -71.00505 | 36252 ft | 505 kts | 139° |
| 2026-05-06 19:20 | 43.65508 | -70.96866 | 36427 ft | 507 kts | 139° |
| 2026-05-06 19:20 | 43.63169 | -70.93227 | 36594 ft | 508 kts | 139° |
| 2026-05-06 19:21 | 43.60820 | -70.89576 | 36792 ft | 509 kts | 139° |
| 2026-05-06 19:21 | 43.58459 | -70.85910 | 36963 ft | 511 kts | 139° |
| 2026-05-06 19:21 | 43.56090 | -70.82235 | 37157 ft | 512 kts | 139° |
| 2026-05-06 19:21 | 43.53719 | -70.78562 | 37327 ft | 514 kts | 139° |
| 2026-05-06 19:22 | 43.51341 | -70.74885 | 37497 ft | 515 kts | 139° |
| 2026-05-06 19:22 | 43.48947 | -70.71188 | 37622 ft | 517 kts | 139° |
| 2026-05-06 19:22 | 43.46581 | -70.67536 | 37797 ft | 518 kts | 140° |
| 2026-05-06 19:22 | 43.44030 | -70.64118 | 37954 ft | 507 kts | 150° |
| 2026-05-06 19:23 | 43.41163 | -70.61352 | 38070 ft | 496 kts | 160° |
| 2026-05-06 19:23 | 43.38103 | -70.59293 | 38190 ft | 486 kts | 169° |
| 2026-05-06 19:23 | 43.34930 | -70.57756 | 38274 ft | 484 kts | 170° |
| 2026-05-06 19:23 | 43.31742 | -70.56242 | 38396 ft | 485 kts | 171° |
| 2026-05-06 19:24 | 43.28546 | -70.54742 | 38536 ft | 486 kts | 171° |
| 2026-05-06 19:24 | 43.25343 | -70.53243 | 38647 ft | 487 kts | 171° |
| 2026-05-06 19:24 | 43.22129 | -70.51734 | 38759 ft | 488 kts | 170° |
| 2026-05-06 19:25 | 43.15724 | -70.48731 | 38802 ft | 491 kts | 170° |
| 2026-05-06 19:25 | 43.09261 | -70.45707 | 38813 ft | 491 kts | 170° |
| 2026-05-06 19:26 | 43.02786 | -70.42688 | 38804 ft | 490 kts | 171° |
| 2026-05-06 19:26 | 42.96339 | -70.39687 | 38811 ft | 490 kts | 171° |
| 2026-05-06 19:27 | 42.89873 | -70.36685 | 38825 ft | 491 kts | 171° |
| 2026-05-06 19:27 | 42.83397 | -70.33685 | 38829 ft | 492 kts | 171° |
| 2026-05-06 19:28 | 42.76905 | -70.30683 | 38846 ft | 493 kts | 171° |
| 2026-05-06 19:28 | 42.70436 | -70.27698 | 38844 ft | 494 kts | 171° |
| 2026-05-06 19:29 | 42.63918 | -70.24698 | 38850 ft | 494 kts | 171° |
| 2026-05-06 19:29 | 42.60665 | -70.23210 | 38714 ft | 492 kts | 173° |
| 2026-05-06 19:29 | 42.57380 | -70.22079 | 38172 ft | 487 kts | 176° |
| 2026-05-06 19:29 | 42.54087 | -70.20990 | 37765 ft | 488 kts | 175° |
| 2026-05-06 19:30 | 42.50783 | -70.19868 | 37373 ft | 487 kts | 175° |
| 2026-05-06 19:30 | 42.47488 | -70.18769 | 36966 ft | 486 kts | 175° |
| 2026-05-06 19:30 | 42.44206 | -70.17695 | 36566 ft | 485 kts | 175° |
| 2026-05-06 19:30 | 42.40931 | -70.16617 | 36171 ft | 485 kts | 174° |
| 2026-05-06 19:31 | 42.37649 | -70.15526 | 35779 ft | 485 kts | 174° |
| 2026-05-06 19:31 | 42.34376 | -70.14441 | 35378 ft | 484 kts | 174° |
| 2026-05-06 19:31 | 42.27831 | -70.12289 | 34597 ft | 484 kts | 174° |
| 2026-05-06 19:32 | 42.24568 | -70.11214 | 34199 ft | 483 kts | 173° |
| 2026-05-06 19:32 | 42.21345 | -70.10151 | 33929 ft | 480 kts | 173° |
| 2026-05-06 19:32 | 42.14880 | -70.08033 | 33931 ft | 482 kts | 173° |
| 2026-05-06 19:33 | 42.08299 | -70.06036 | 33950 ft | 480 kts | 180° |
| 2026-05-06 19:33 | 42.01729 | -70.06212 | 33939 ft | 466 kts | 197° |
| 2026-05-06 19:34 | 41.95688 | -70.08924 | 33945 ft | 453 kts | 213° |
| 2026-05-06 19:34 | 41.91214 | -70.12525 | 33929 ft | 450 kts | 217° |
| 2026-05-06 19:35 | 41.85024 | -70.17692 | 33927 ft | 451 kts | 217° |
| 2026-05-06 19:35 | 41.79732 | -70.22103 | 32320 ft | 451 kts | 217° |
| 2026-05-06 19:36 | 41.77927 | -70.23605 | 31573 ft | 453 kts | 216° |
| 2026-05-06 19:36 | 41.75241 | -70.25838 | 30484 ft | 456 kts | 216° |
| 2026-05-06 19:36 | 41.72575 | -70.28052 | 29433 ft | 457 kts | 216° |
| 2026-05-06 19:36 | 41.69901 | -70.30265 | 28775 ft | 447 kts | 216° |
| 2026-05-06 19:37 | 41.67385 | -70.32628 | 27915 ft | 438 kts | 223° |
| 2026-05-06 19:37 | 41.65190 | -70.35395 | 27132 ft | 429 kts | 230° |
| 2026-05-06 19:37 | 41.63343 | -70.38493 | 26385 ft | 422 kts | 237° |
| 2026-05-06 19:37 | 41.61863 | -70.41826 | 25552 ft | 405 kts | 243° |
| 2026-05-06 19:38 | 41.60774 | -70.45232 | 23283 ft | 398 kts | 251° |
| 2026-05-06 19:38 | 41.60053 | -70.48765 | 21286 ft | 387 kts | 257° |
| 2026-05-06 19:38 | 41.59683 | -70.52259 | 19450 ft | 373 kts | 264° |
| 2026-05-06 19:38 | 41.59639 | -70.55665 | 17619 ft | 362 kts | 269° |
| 2026-05-06 19:39 | 41.59878 | -70.58961 | 15611 ft | 352 kts | 272° |
| 2026-05-06 19:39 | 41.60288 | -70.62167 | 13682 ft | 347 kts | 275° |
| 2026-05-06 19:39 | 41.60832 | -70.65276 | 12050 ft | 340 kts | 276° |
| 2026-05-06 19:39 | 41.61343 | -70.68408 | 11214 ft | 345 kts | 274° |
| 2026-05-06 19:40 | 41.61790 | -70.71436 | 11052 ft | 329 kts | 273° |
| 2026-05-06 19:40 | 41.62234 | -70.74470 | 11055 ft | 340 kts | 274° |
| 2026-05-06 19:40 | 41.62702 | -70.77553 | 10941 ft | 331 kts | 274° |
| 2026-05-06 19:40 | 41.63165 | -70.80490 | 10653 ft | 313 kts | 274° |
| 2026-05-06 19:41 | 41.63592 | -70.83286 | 10356 ft | 300 kts | 272° |
| 2026-05-06 19:41 | 41.63988 | -70.85944 | 10185 ft | 283 kts | 272° |
| 2026-05-06 19:41 | 41.64367 | -70.88469 | 9950 ft | 270 kts | 272° |
| 2026-05-06 19:41 | 41.64729 | -70.90827 | 9778 ft | 244 kts | 271° |
| 2026-05-06 19:42 | 41.65059 | -70.93067 | 8846 ft | 251 kts | 271° |
| 2026-05-06 19:42 | 41.65387 | -70.95308 | 8506 ft | 245 kts | 271° |
| 2026-05-06 19:42 | 41.65725 | -70.97550 | 8028 ft | 244 kts | 271° |
| 2026-05-06 19:42 | 41.66058 | -70.99768 | 7559 ft | 243 kts | 272° |
| 2026-05-06 19:43 | 41.66389 | -71.01987 | 7089 ft | 243 kts | 272° |
| 2026-05-06 19:43 | 41.66720 | -71.04195 | 6640 ft | 242 kts | 272° |
| 2026-05-06 19:43 | 41.67048 | -71.06391 | 6213 ft | 241 kts | 272° |
| 2026-05-06 19:43 | 41.67375 | -71.08587 | 5753 ft | 239 kts | 272° |
| 2026-05-06 19:44 | 41.67698 | -71.10759 | 5327 ft | 237 kts | 272° |
| 2026-05-06 19:44 | 41.68019 | -71.12916 | 4910 ft | 235 kts | 272° |
| 2026-05-06 19:44 | 41.68337 | -71.15054 | 4509 ft | 233 kts | 272° |
| 2026-05-06 19:44 | 41.68651 | -71.17175 | 4101 ft | 231 kts | 271° |
| 2026-05-06 19:45 | 41.68953 | -71.19221 | 4009 ft | 227 kts | 271° |
| 2026-05-06 19:45 | 41.69258 | -71.21314 | 4002 ft | 230 kts | 271° |
| 2026-05-06 19:45 | 41.69570 | -71.23416 | 4008 ft | 229 kts | 272° |
| 2026-05-06 19:45 | 41.69879 | -71.25500 | 4007 ft | 229 kts | 271° |
| 2026-05-06 19:46 | 41.70188 | -71.27604 | 4008 ft | 230 kts | 271° |
| 2026-05-06 19:46 | 41.70495 | -71.29701 | 4007 ft | 230 kts | 272° |
| 2026-05-06 19:46 | 41.70847 | -71.31789 | 4005 ft | 235 kts | 279° |
| 2026-05-06 19:46 | 41.71625 | -71.33758 | 3832 ft | 244 kts | 296° |
| 2026-05-06 19:47 | 41.72863 | -71.35439 | 3292 ft | 261 kts | 313° |
| 2026-05-06 19:47 | 41.74485 | -71.36629 | 2833 ft | 274 kts | 329° |
| 2026-05-06 19:47 | 41.76378 | -71.37214 | 2389 ft | 285 kts | 347° |
| 2026-05-06 19:47 | 41.78365 | -71.37093 | 2206 ft | 285 kts | 7° |
| 2026-05-06 19:48 | 41.80257 | -71.36252 | 2208 ft | 290 kts | 24° |
| 2026-05-06 19:48 | 41.81945 | -71.34764 | 2199 ft | 285 kts | 43° |
| 2026-05-06 19:48 | 41.83252 | -71.32785 | 2195 ft | 283 kts | 60° |
| 2026-05-06 19:48 | 41.84265 | -71.30585 | 2188 ft | 275 kts | 65° |
| 2026-05-06 19:49 | 41.85219 | -71.28339 | 2182 ft | 278 kts | 66° |
| 2026-05-06 19:49 | 41.86163 | -71.26077 | 2179 ft | 278 kts | 66° |
| 2026-05-06 19:49 | 41.87092 | -71.23845 | 2187 ft | 274 kts | 66° |
| 2026-05-06 19:49 | 41.88026 | -71.21631 | 2194 ft | 273 kts | 66° |
| 2026-05-06 19:50 | 41.88973 | -71.19421 | 2185 ft | 270 kts | 66° |
| 2026-05-06 19:50 | 41.89889 | -71.17296 | 2181 ft | 254 kts | 66° |
| 2026-05-06 19:50 | 41.90749 | -71.15316 | 2202 ft | 237 kts | 66° |
| 2026-05-06 19:50 | 41.91556 | -71.13467 | 2192 ft | 224 kts | 66° |
| 2026-05-06 19:51 | 41.92338 | -71.11682 | 2185 ft | 220 kts | 66° |
| 2026-05-06 19:51 | 41.93115 | -71.09917 | 2191 ft | 220 kts | 66° |
| 2026-05-06 19:51 | 41.93897 | -71.08174 | 2188 ft | 222 kts | 66° |
| 2026-05-06 19:51 | 41.94696 | -71.06409 | 2191 ft | 221 kts | 66° |
| 2026-05-06 19:52 | 41.95500 | -71.04633 | 2191 ft | 224 kts | 65° |
| 2026-05-06 19:52 | 41.96294 | -71.02845 | 2187 ft | 221 kts | 66° |
| 2026-05-06 19:52 | 41.97075 | -71.01072 | 2187 ft | 220 kts | 66° |
| 2026-05-06 19:52 | 41.97874 | -70.99304 | 2189 ft | 224 kts | 61° |
| 2026-05-06 19:53 | 41.99124 | -70.98110 | 2095 ft | 219 kts | 9° |
| 2026-05-06 19:53 | 42.00517 | -70.98336 | 2092 ft | 195 kts | 316° |
| 2026-05-06 19:53 | 42.01211 | -70.99619 | 2130 ft | 153 kts | 264° |
| 2026-05-06 19:53 | 42.01071 | -71.00940 | 2208 ft | 141 kts | 246° |
| 2026-05-06 19:54 | 42.00853 | -71.02227 | 2205 ft | 140 kts | 246° |
| 2026-05-06 19:54 | 42.00643 | -71.03490 | 2208 ft | 138 kts | 246° |
| 2026-05-06 19:54 | 42.00436 | -71.04755 | 2206 ft | 139 kts | 246° |
| 2026-05-06 19:54 | 42.00226 | -71.06020 | 2204 ft | 138 kts | 246° |
| 2026-05-06 19:55 | 42.00013 | -71.07269 | 2202 ft | 136 kts | 246° |
| 2026-05-06 19:55 | 41.99795 | -71.08495 | 2202 ft | 137 kts | 246° |
| 2026-05-06 19:55 | 41.99569 | -71.09751 | 2201 ft | 138 kts | 246° |
| 2026-05-06 19:55 | 41.99319 | -71.10993 | 2194 ft | 136 kts | 241° |
| 2026-05-06 19:56 | 41.98959 | -71.12155 | 2202 ft | 134 kts | 239° |
| 2026-05-06 19:56 | 41.98604 | -71.13304 | 2207 ft | 132 kts | 238° |
| 2026-05-06 19:56 | 41.98261 | -71.14455 | 2205 ft | 133 kts | 239° |
| 2026-05-06 19:56 | 41.97927 | -71.15607 | 2200 ft | 134 kts | 239° |
| 2026-05-06 19:57 | 41.97595 | -71.16771 | 2207 ft | 133 kts | 239° |
| 2026-05-06 19:57 | 41.97263 | -71.17931 | 2200 ft | 132 kts | 239° |
| 2026-05-06 19:57 | 41.96933 | -71.19084 | 2206 ft | 133 kts | 239° |
| 2026-05-06 19:57 | 41.96554 | -71.20212 | 2193 ft | 130 kts | 232° |
| 2026-05-06 19:58 | 41.96026 | -71.21217 | 2203 ft | 138 kts | 227° |
| 2026-05-06 19:58 | 41.95412 | -71.22274 | 2207 ft | 145 kts | 228° |
| 2026-05-06 19:58 | 41.94776 | -71.23336 | 2197 ft | 146 kts | 225° |
| 2026-05-06 19:58 | 41.94044 | -71.24232 | 2191 ft | 136 kts | 216° |
| 2026-05-06 19:59 | 41.93304 | -71.24932 | 2181 ft | 128 kts | 214° |
| 2026-05-06 19:59 | 41.92608 | -71.25555 | 2180 ft | 122 kts | 213° |
| 2026-05-06 19:59 | 41.91874 | -71.26179 | 2172 ft | 121 kts | 213° |
| 2026-05-06 19:59 | 41.91163 | -71.26781 | 2180 ft | 123 kts | 212° |
| 2026-05-06 20:00 | 41.90430 | -71.27401 | 2178 ft | 125 kts | 211° |
| 2026-05-06 20:00 | 41.89702 | -71.28016 | 2185 ft | 123 kts | 211° |
| 2026-05-06 20:00 | 41.88963 | -71.28643 | 2180 ft | 125 kts | 212° |
| 2026-05-06 20:00 | 41.88232 | -71.29269 | 2183 ft | 126 kts | 212° |
| 2026-05-06 20:01 | 41.87492 | -71.29895 | 2181 ft | 125 kts | 212° |
| 2026-05-06 20:01 | 41.86765 | -71.30506 | 2181 ft | 122 kts | 213° |
| 2026-05-06 20:01 | 41.86041 | -71.31117 | 2172 ft | 123 kts | 213° |
| 2026-05-06 20:01 | 41.85324 | -71.31731 | 2172 ft | 122 kts | 213° |
| 2026-05-06 20:02 | 41.84602 | -71.32339 | 2166 ft | 123 kts | 213° |
| 2026-05-06 20:02 | 41.83878 | -71.32952 | 2177 ft | 124 kts | 212° |
| 2026-05-06 20:02 | 41.83143 | -71.33572 | 2186 ft | 126 kts | 212° |
| 2026-05-06 20:02 | 41.82401 | -71.34202 | 2196 ft | 130 kts | 213° |
| 2026-05-06 20:03 | 41.81637 | -71.34857 | 2080 ft | 130 kts | 212° |
| 2026-05-06 20:03 | 41.80897 | -71.35475 | 1898 ft | 117 kts | 212° |
| 2026-05-06 20:03 | 41.80249 | -71.36030 | 1752 ft | 107 kts | 213° |
| 2026-05-06 20:03 | 41.79612 | -71.36563 | 1615 ft | 110 kts | 212° |
| 2026-05-06 20:04 | 41.78943 | -71.37128 | 1461 ft | 115 kts | 211° |
| 2026-05-06 20:04 | 41.78306 | -71.37667 | 1318 ft | 105 kts | 210° |
| 2026-05-06 20:04 | 41.77664 | -71.38208 | 1163 ft | 112 kts | 211° |
| 2026-05-06 20:04 | 41.77027 | -71.38785 | 889 ft | 112 kts | 214° |
| 2026-05-06 20:05 | 41.76329 | -71.39355 | 830 ft | 125 kts | 208° |
| 2026-05-06 20:05 | 41.75586 | -71.39972 | 696 ft | 125 kts | 211° |
| 2026-05-06 20:05 | 41.74875 | -71.40572 | 468 ft | 119 kts | 212° |
| 2026-05-06 20:05 | 41.74168 | -71.41162 | 353 ft | 124 kts | 211° |
| 2026-05-06 20:06 | 41.73474 | -71.41750 | 198 ft | 125 kts | 209° |
| 2026-05-06 20:06 | 41.72746 | -71.42357 | 61 ft | 112 kts | 211° |
| 2026-05-06 20:06 | 41.72193 | -71.42816 | 64 ft | 77 kts | 211° |
| 2026-05-06 20:06 | 41.71874 | -71.43085 | 55 ft | 30 kts | 213° |
| 2026-05-06 20:07 | 41.71821 | -71.43215 | 64 ft | 10 kts | 287° |
| 2026-05-06 20:07 | 41.71851 | -71.43300 | 59 ft | 10 kts | 301° |
| 2026-05-06 20:07 | 41.71889 | -71.43383 | 63 ft | 11 kts | 301° |
| 2026-05-06 20:07 | 41.71931 | -71.43472 | 56 ft | 12 kts | 303° |
| 2026-05-06 20:08 | 41.71974 | -71.43561 | 59 ft | 11 kts | 304° |
| 2026-05-06 20:08 | 41.72016 | -71.43645 | 61 ft | 11 kts | 303° |
| 2026-05-06 20:08 | 41.72057 | -71.43725 | 63 ft | 10 kts | 310° |
| 2026-05-06 20:08 | 41.72117 | -71.43747 | 65 ft | 9 kts | 11° |
| 2026-05-06 20:09 | 41.72173 | -71.43712 | 63 ft | 10 kts | 30° |
| 2026-05-06 20:09 | 41.72237 | -71.43659 | 61 ft | 11 kts | 32° |
| 2026-05-06 20:09 | 41.72295 | -71.43592 | 62 ft | 11 kts | 45° |
| 2026-05-06 20:09 | 41.72358 | -71.43525 | 62 ft | 12 kts | 34° |
| 2026-05-06 20:10 | 41.72435 | -71.43461 | 62 ft | 14 kts | 31° |
| 2026-05-06 20:10 | 41.72523 | -71.43389 | 70 ft | 15 kts | 32° |
| 2026-05-06 20:10 | 41.72612 | -71.43315 | 62 ft | 15 kts | 32° |
| 2026-05-06 20:10 | 41.72693 | -71.43247 | 65 ft | 13 kts | 32° |
| 2026-05-06 20:11 | 41.72751 | -71.43221 | 67 ft | 2 kts | 331° |
| 2026-05-06 20:11 | 41.72756 | -71.43230 | 67 ft | 1 kts | 302° |
| 2026-05-06 20:11 | 41.72757 | -71.43241 | 64 ft | 3 kts | 284° |
| 2026-05-06 20:11 | 41.72762 | -71.43267 | 65 ft | 2 kts | 282° |
| 2026-05-06 20:12 | 41.72763 | -71.43275 | 67 ft | 0 kts | 282° |
| 2026-05-06 20:12 | 41.72763 | -71.43278 | 67 ft | 0 kts | 282° |
| 2026-05-06 20:12 | 41.72764 | -71.43283 | 68 ft | 1 kts | 282° |
| 2026-05-06 20:13 | 41.72764 | -71.43284 | 68 ft | 0 kts | 282° |